Time;durP1;ratioP1;P1;durP2;ratioP2;P2;SDS_P1;SDS_P2;PMS_P1;PMS_P2;Temp;Humidity;BMP_temperature;BMP_pressure;BME280_temperature;BME280_humidity;BME280_pressure;Samples;Min_cycle;Max_cycle;Signal;HPM_P1;HPM_P2
2022/05/25 00:02:04;;;;;;;7.33;5.40;;;;;;;17.51;100.00;97751.83;1725423;82;28178;-84
2022/05/25 00:04:34;;;;;;;7.60;5.10;;;;;;;17.54;100.00;97750.16;1724164;82;28169;-84
2022/05/25 00:07:08;;;;;;;5.42;4.92;;;;;;;17.58;100.00;97747.50;1723960;82;28073;-84
2022/05/25 00:09:34;;;;;;;8.53;5.58;;;;;;;17.63;100.00;97744.37;1722972;82;28106;-84
2022/05/25 00:12:01;;;;;;;7.30;5.40;;;;;;;17.63;100.00;97741.23;1723867;82;28082;-88
2022/05/25 00:14:28;;;;;;;9.43;5.60;;;;;;;17.67;100.00;97745.71;1729904;82;28072;-86
2022/05/25 00:16:54;;;;;;;5.72;4.97;;;;;;;17.64;100.00;97745.54;1728255;81;28225;-86
2022/05/25 00:22:05;;;;;;;6.33;5.60;;;;;;;17.66;100.00;97736.95;1727105;82;28108;-88
2022/05/25 00:24:31;;;;;;;9.90;5.83;;;;;;;17.67;100.00;97729.34;1720136;82;28230;-89
2022/05/25 00:26:58;;;;;;;9.40;6.97;;;;;;;17.67;100.00;97729.34;1727778;82;28090;-83
2022/05/25 00:29:26;;;;;;;9.70;6.80;;;;;;;17.64;100.00;97736.27;1726093;81;28121;-84
2022/05/25 00:31:57;;;;;;;8.45;6.58;;;;;;;17.55;100.00;97738.59;1699043;82;28052;-84
2022/05/25 00:34:25;;;;;;;10.65;6.80;;;;;;;17.49;100.00;97735.28;1726154;82;28153;-84
2022/05/25 00:36:52;;;;;;;11.18;6.80;;;;;;;17.44;100.00;97741.08;1726544;82;28031;-84
2022/05/25 00:39:24;;;;;;;9.33;7.05;;;;;;;17.37;100.00;97736.12;1727192;82;28121;-86
2022/05/25 00:41:50;;;;;;;11.95;7.30;;;;;;;17.27;100.00;97740.76;1725254;81;28077;-86
2022/05/25 00:44:17;;;;;;;8.63;6.80;;;;;;;17.24;100.00;97752.17;1729817;82;28080;-89
2022/05/25 00:46:44;;;;;;;11.38;7.42;;;;;;;17.16;100.00;97754.31;1726285;82;28011;-89
2022/05/25 00:49:26;;;;;;;10.80;6.92;;;;;;;17.19;100.00;97761.07;1725879;82;28106;-89
2022/05/25 00:51:55;;;;;;;;;;;;;;;17.21;100.00;97763.06;1734007;81;28082;-85
2022/05/25 00:54:37;;;;;;;12.37;8.03;;;;;;;17.23;100.00;97759.77;1726378;82;26748;-84
2022/05/25 00:57:09;;;;;;;;;;;;;;;17.24;100.00;97766.19;1736524;81;28079;-84
2022/05/25 00:59:37;;;;;;;;;;;;;;;17.23;100.00;97757.95;1733076;81;20310;-84
2022/05/25 01:02:03;;;;;;;12.15;8.05;;;;;;;17.26;100.00;97755.45;1726340;81;24953;-83
2022/05/25 01:04:29;;;;;;;10.38;7.58;;;;;;;17.30;100.00;97770.00;1725032;82;28083;-84
2022/05/25 01:07:28;;;;;;;11.80;7.78;;;;;;;17.31;100.00;97772.98;1731138;82;28179;-88
2022/05/25 01:10:10;;;;;;;9.68;7.42;;;;;;;17.28;100.00;97774.64;1728900;81;28001;-84
2022/05/25 01:12:49;;;;;;;10.08;7.92;;;;;;;17.30;100.00;97785.86;1730628;81;28075;-84
2022/05/25 01:15:19;;;;;;;9.55;7.87;;;;;;;17.30;100.00;97778.76;1729402;82;28561;-89
2022/05/25 01:17:58;;;;;;;9.50;7.42;;;;;;;17.27;100.00;97775.14;1726343;81;28166;-86
2022/05/25 01:20:35;;;;;;;9.03;7.58;;;;;;;17.28;100.00;97775.97;1726416;82;28096;-86
2022/05/25 01:23:17;;;;;;;11.28;8.45;;;;;;;17.32;100.00;97779.92;1726913;82;28165;-85
2022/05/25 01:26:22;;;;;;;10.45;8.08;;;;;;;17.36;100.00;97781.23;1734689;81;28088;-84
2022/05/25 01:29:24;;;;;;;10.32;8.25;;;;;;;17.37;100.00;97783.73;1725735;81;28106;-82
2022/05/25 01:32:19;;;;;;;16.45;9.83;;;;;;;17.40;100.00;97783.91;1722304;82;28079;-83
2022/05/25 01:35:06;;;;;;;15.68;10.48;;;;;;;17.40;100.00;97787.88;1727234;82;28207;-86
2022/05/25 01:37:37;;;;;;;15.72;10.15;;;;;;;17.43;100.00;97786.21;1724798;81;28009;-86
2022/05/25 01:40:16;;;;;;;12.90;8.83;;;;;;;17.49;100.00;97786.88;1728217;82;28021;-86
2022/05/25 01:42:46;;;;;;;12.73;9.05;;;;;;;17.52;100.00;97793.97;1706029;82;28211;-87
2022/05/25 01:45:17;;;;;;;10.60;8.43;;;;;;;17.55;100.00;97792.83;1727841;81;28069;-87
2022/05/25 01:47:47;;;;;;;12.20;8.87;;;;;;;17.50;100.00;97790.69;1728752;81;34018;-87
2022/05/25 01:50:23;;;;;;;9.83;8.63;;;;;;;17.51;100.00;97793.63;1726951;82;28105;-85
2022/05/25 01:52:56;;;;;;;10.95;7.78;;;;;;;17.55;100.00;97796.30;1687694;83;28641;-87
2022/05/25 01:55:28;;;;;;;12.45;7.87;;;;;;;17.55;100.00;97805.56;1658230;85;28054;-85
2022/05/25 01:57:58;;;;;;;11.85;8.18;;;;;;;17.58;100.00;97799.09;1723136;82;28013;-90
2022/05/25 02:00:48;;;;;;;13.30;8.28;;;;;;;17.47;100.00;97795.45;1726241;81;28102;-87
2022/05/25 02:06:26;;;;;;;10.35;7.42;;;;;;;17.23;100.00;97798.11;1732307;81;28114;-85
2022/05/25 02:09:15;;;;;;;10.40;7.15;;;;;;;17.25;100.00;97784.22;1721273;81;28063;-85
2022/05/25 02:11:46;;;;;;;9.45;6.58;;;;;;;17.36;100.00;97787.36;1734864;81;28151;-89
2022/05/25 02:14:51;;;;;;;10.15;7.70;;;;;;;17.44;100.00;97793.16;1722191;82;27993;-89
2022/05/25 02:17:39;;;;;;;8.70;7.28;;;;;;;17.38;100.00;97792.50;1724910;81;26148;-89
2022/05/25 02:20:10;;;;;;;;;;;;;;;17.31;100.00;97793.64;1727714;82;28110;-89
2022/05/25 02:22:38;;;;;;;;;;;;;;;17.38;100.00;97797.30;1729476;82;24816;-88
2022/05/25 02:25:13;;;;;;;11.08;7.03;;;;;;;17.42;100.00;97798.61;1725014;81;22039;-89
2022/05/25 02:27:44;;;;;;;8.88;6.70;;;;;;;17.46;100.00;97796.45;1733532;81;28095;-89
2022/05/25 02:30:20;;;;;;;11.12;7.35;;;;;;;17.50;100.00;97794.66;1720121;82;28085;-86
2022/05/25 02:32:50;;;;;;;7.22;6.05;;;;;;;17.51;100.00;97796.28;1721430;82;28094;-89
2022/05/25 02:35:20;;;;;;;8.33;6.30;;;;;;;17.47;100.00;97792.32;1724942;81;28119;-86
2022/05/25 02:37:56;;;;;;;8.20;5.90;;;;;;;17.43;100.00;97792.82;1726535;80;28086;-86
2022/05/25 02:40:23;;;;;;;7.30;5.37;;;;;;;17.32;100.00;97795.80;1713170;82;28088;-85
2022/05/25 02:42:49;;;;;;;8.23;5.92;;;;;;;17.19;100.00;97793.63;1720478;82;28048;-85
2022/05/25 02:45:16;;;;;;;8.85;5.55;;;;;;;17.05;100.00;97792.47;1731550;82;28116;-89
2022/05/25 02:47:44;;;;;;;8.35;5.87;;;;;;;16.96;100.00;97789.98;1721911;82;27999;-89
2022/05/25 02:50:10;;;;;;;8.40;5.67;;;;;;;16.89;100.00;97791.62;1724339;82;28123;-90
2022/05/25 02:52:43;;;;;;;8.08;5.80;;;;;;;16.89;100.00;97795.09;1724954;81;28065;-90
2022/05/25 02:55:10;;;;;;;9.05;5.92;;;;;;;16.86;100.00;97790.60;1730513;82;28056;-86
2022/05/25 02:57:37;;;;;;;8.65;6.45;;;;;;;16.76;100.00;97797.84;1730434;82;28195;-89
2022/05/25 03:00:05;;;;;;;9.00;6.50;;;;;;;16.66;100.00;97790.90;1730068;81;28147;-90
2022/05/25 03:02:31;;;;;;;7.72;5.87;;;;;;;16.72;100.00;97791.58;1727790;82;28155;-86
2022/05/25 03:04:57;;;;;;;8.35;5.55;;;;;;;16.71;100.00;97789.09;1719059;82;28111;-86
2022/05/25 03:07:25;;;;;;;9.03;5.55;;;;;;;16.72;100.00;97792.07;1724578;82;28135;-86
2022/05/25 03:09:55;;;;;;;7.85;5.28;;;;;;;16.69;100.00;97799.02;1723488;82;28068;-86
2022/05/25 03:12:25;;;;;;;6.37;5.30;;;;;;;16.69;100.00;97800.33;1727017;82;28176;-86
2022/05/25 03:14:50;;;;;;;6.78;5.42;;;;;;;16.73;100.00;97797.70;1730162;82;28080;-85
2022/05/25 03:17:20;;;;;;;7.58;5.85;;;;;;;16.78;100.00;97798.53;1730793;82;28070;-85
2022/05/25 03:19:55;;;;;;;8.58;5.65;;;;;;;16.73;100.00;97799.02;1729285;82;28074;-85
2022/05/25 03:22:23;;;;;;;6.58;5.55;;;;;;;16.63;100.00;97803.61;1721812;82;28182;-87
2022/05/25 03:24:50;;;;;;;7.83;5.47;;;;;;;16.57;100.00;97801.58;1729111;82;28096;-86
2022/05/25 03:27:18;;;;;;;7.53;4.92;;;;;;;16.53;100.00;97808.97;1732082;81;28125;-88
2022/05/25 03:29:44;;;;;;;6.30;4.97;;;;;;;16.46;100.00;97800.55;1728619;81;28017;-88
2022/05/25 03:32:11;;;;;;;6.40;5.05;;;;;;;16.40;100.00;97804.65;1725108;82;28211;-88
2022/05/25 03:34:38;;;;;;;6.72;5.12;;;;;;;16.37;100.00;97801.48;1725619;81;28502;-85
2022/05/25 03:37:10;;;;;;;5.87;4.90;;;;;;;16.38;100.00;97799.17;1727667;82;28131;-87
2022/05/25 03:39:37;;;;;;;9.00;5.58;;;;;;;16.40;100.00;97799.86;1714744;82;28002;-88
2022/05/25 03:42:10;;;;;;;6.15;5.30;;;;;;;16.42;100.00;97797.38;1718978;82;28055;-88
2022/05/25 03:44:40;;;;;;;6.90;4.80;;;;;;;16.50;100.00;97800.06;1719217;82;28080;-85
2022/05/25 03:47:06;;;;;;;7.03;4.80;;;;;;;16.63;100.00;97798.33;1720899;82;28091;-88
2022/05/25 03:49:34;;;;;;;6.37;4.90;;;;;;;16.84;100.00;97792.11;1715798;82;28044;-85
2022/05/25 03:52:00;;;;;;;10.85;5.53;;;;;;;16.96;100.00;97787.34;1726419;82;28042;-85
2022/05/25 03:54:27;;;;;;;6.55;5.05;;;;;;;17.00;100.00;97789.50;1717779;82;28130;-85
2022/05/25 03:56:56;;;;;;;6.03;5.37;;;;;;;16.91;100.00;97786.48;1721224;82;28092;-85
2022/05/25 03:59:24;;;;;;;5.60;4.95;;;;;;;16.89;100.00;97785.84;1720784;82;28068;-85
2022/05/25 04:01:51;;;;;;;5.20;4.70;;;;;;;16.97;100.00;97775.27;1715551;82;28200;-89
2022/05/25 04:04:26;;;;;;;7.20;5.70;;;;;;;17.13;100.00;97781.89;1720624;82;28106;-88
2022/05/25 04:06:55;;;;;;;7.45;5.47;;;;;;;17.27;100.00;97779.11;1721600;82;28066;-85
2022/05/25 04:09:21;;;;;;;;;;;;;;;17.39;100.00;97783.08;1728002;82;28055;-89
2022/05/25 04:11:48;;;;;;;7.85;6.45;;;;;;;17.46;100.00;97789.34;1721081;82;43052;-89
2022/05/25 04:14:15;;;;;;;8.28;6.53;;;;;;;17.49;100.00;97788.19;1718402;82;28084;-88
2022/05/25 04:16:45;;;;;;;10.25;6.25;;;;;;;17.39;100.00;97787.54;1717574;82;28179;-85
2022/05/25 04:19:13;;;;;;;6.55;5.60;;;;;;;17.20;100.00;97786.03;1724731;82;28072;-85
2022/05/25 04:21:40;;;;;;;9.20;5.85;;;;;;;17.03;100.00;97783.03;1722634;82;28154;-87
2022/05/25 04:24:07;;;;;;;10.63;7.50;;;;;;;16.98;100.00;97786.17;1715069;82;28060;-87
2022/05/25 04:26:34;;;;;;;8.23;6.17;;;;;;;16.99;100.00;97789.16;1712827;82;28027;-87
2022/05/25 04:29:01;;;;;;;7.97;5.53;;;;;;;17.03;100.00;97788.33;1713688;82;28181;-87
2022/05/25 04:31:27;;;;;;;6.92;5.45;;;;;;;17.02;100.00;97790.66;1713878;82;28131;-87
2022/05/25 04:33:57;;;;;;;7.55;5.65;;;;;;;17.03;100.00;97787.00;1724855;82;28081;-87
2022/05/25 04:36:24;;;;;;;6.60;5.33;;;;;;;17.02;100.00;97784.05;1724918;82;28195;-87
2022/05/25 04:38:53;;;;;;;8.05;6.17;;;;;;;17.00;100.00;97784.20;1731059;81;28076;-87
2022/05/25 04:41:24;;;;;;;7.28;5.97;;;;;;;17.03;100.00;97790.48;1730935;81;28082;-87
2022/05/25 04:43:50;;;;;;;6.97;5.17;;;;;;;17.05;100.00;97784.54;1734182;81;28063;-87
2022/05/25 04:46:16;;;;;;;7.00;6.10;;;;;;;16.99;100.00;97782.55;1734697;81;28196;-87
2022/05/25 04:48:44;;;;;;;;;;;;;;;16.87;100.00;97779.05;1729071;81;25138;-87
2022/05/25 04:51:16;;;;;;;7.90;5.60;;;;;;;16.86;100.00;97786.14;1731488;81;105343;-85
2022/05/25 04:53:47;;;;;;;;;;;;;;;16.90;100.00;97786.67;1734766;81;22154;-85
2022/05/25 04:59:06;;;;;;;;;;;;;;;16.93;100.00;97787.16;1734393;81;24401;-88
2022/05/25 05:01:32;;;;;;;7.53;6.58;;;;;;;16.93;100.00;97786.33;1738888;81;43091;-88
2022/05/25 05:03:59;;;;;;;9.38;7.45;;;;;;;16.97;100.00;97792.94;1735667;81;28064;-89
2022/05/25 05:06:25;;;;;;;9.03;7.10;;;;;;;16.94;100.00;97790.14;1729975;81;28173;-90
2022/05/25 05:08:55;;;;;;;9.35;6.87;;;;;;;16.96;100.00;97793.46;1731719;81;28160;-86
2022/05/25 05:11:21;;;;;;;9.65;7.70;;;;;;;17.06;100.00;97794.13;1735611;81;28002;-86
2022/05/25 05:13:47;;;;;;;9.03;6.58;;;;;;;17.17;100.00;97800.09;1733265;81;28062;-87
2022/05/25 05:16:19;;;;;;;9.28;6.92;;;;;;;17.24;100.00;97791.84;1742048;81;28057;-86
2022/05/25 05:18:46;;;;;;;11.43;7.70;;;;;;;17.28;100.00;97784.73;1732300;81;28507;-88
2022/05/25 05:21:12;;;;;;;9.85;7.70;;;;;;;17.19;100.00;97796.27;1734740;81;28104;-90
2022/05/25 05:23:39;;;;;;;10.40;7.00;;;;;;;17.06;100.00;97796.78;1737717;81;28057;-89
2022/05/25 05:26:10;;;;;;;8.17;6.93;;;;;;;17.11;100.00;97802.41;1737324;81;28077;-90
2022/05/25 05:28:39;;;;;;;9.95;7.80;;;;;;;17.20;100.00;97807.69;1739639;81;30048;-86
2022/05/25 05:31:07;;;;;;;10.65;8.10;;;;;;;17.25;100.00;97814.63;1731112;81;28072;-86
2022/05/25 05:33:33;;;;;;;9.23;7.65;;;;;;;17.30;100.00;97803.88;1732884;81;28122;-86
2022/05/25 05:36:12;;;;;;;10.72;7.33;;;;;;;17.34;100.00;97805.73;1734775;81;28113;-89
2022/05/25 05:38:45;;;;;;;9.60;7.30;;;;;;;17.34;100.00;97806.56;1723413;81;28047;-87
2022/05/25 05:41:14;;;;;;;10.58;7.33;;;;;;;17.35;100.00;97819.26;1720091;82;28185;-86
2022/05/25 05:43:41;;;;;;;8.93;7.10;;;;;;;17.35;100.00;97816.61;1718875;82;28156;-86
2022/05/25 05:46:09;;;;;;;11.95;7.22;;;;;;;17.36;100.00;97817.78;1721348;82;28053;-87
2022/05/25 05:48:37;;;;;;;9.70;7.17;;;;;;;17.35;100.00;97817.44;1718413;82;28083;-87
2022/05/25 05:51:11;;;;;;;8.73;7.62;;;;;;;17.31;100.00;97813.97;1724230;82;28184;-87
2022/05/25 05:53:38;;;;;;;8.85;7.05;;;;;;;17.14;100.00;97808.67;1718418;81;28093;-88
2022/05/25 05:56:04;;;;;;;10.03;7.22;;;;;;;16.94;100.00;97806.00;1722432;82;28057;-88
2022/05/25 05:58:31;;;;;;;9.85;7.55;;;;;;;16.98;100.00;97809.97;1715923;82;28122;-86
2022/05/25 06:01:01;;;;;;;9.78;7.42;;;;;;;17.10;100.00;97815.77;1712345;82;28082;-86
2022/05/25 06:03:27;;;;;;;10.88;7.33;;;;;;;17.15;100.00;97828.01;1722274;82;28140;-88
2022/05/25 06:05:53;;;;;;;8.70;7.62;;;;;;;17.15;100.00;97832.80;1716316;82;28092;-88
2022/05/25 06:08:29;;;;;;;10.58;7.45;;;;;;;17.14;100.00;97834.28;1714433;82;28131;-88
2022/05/25 06:10:55;;;;;;;10.47;8.00;;;;;;;17.15;100.00;97830.66;1721764;82;38527;-85
2022/05/25 06:13:22;;;;;;;10.98;8.20;;;;;;;17.08;100.00;97828.31;1720128;82;28027;-85
2022/05/25 06:21:22;;;;;;;11.12;7.17;;;;;;;17.16;100.00;97825.70;1709787;82;28010;-89
2022/05/25 06:23:49;;;;;;;9.13;6.97;;;;;;;17.15;100.00;97832.80;1721453;82;28094;-88
2022/05/25 06:26:16;;;;;;;8.83;7.08;;;;;;;17.15;100.00;97834.13;1713531;82;28010;-89
2022/05/25 06:28:43;;;;;;;7.65;6.85;;;;;;;17.15;100.00;97832.80;1718365;82;28104;-89
2022/05/25 06:31:11;;;;;;;10.45;7.53;;;;;;;17.17;100.00;97837.11;1716889;82;28070;-89
2022/05/25 06:33:38;;;;;;;9.75;7.78;;;;;;;17.20;100.00;97829.67;1720471;82;28108;-89
2022/05/25 06:36:23;;;;;;;9.75;8.28;;;;;;;17.26;100.00;97837.44;1722366;82;28083;-89
2022/05/25 06:38:50;;;;;;;10.18;7.62;;;;;;;17.31;100.00;97843.06;1715606;81;28013;-86
2022/05/25 06:41:17;;;;;;;16.50;8.40;;;;;;;17.31;100.00;97843.06;1725501;82;28109;-85
2022/05/25 06:43:44;;;;;;;12.55;9.83;;;;;;;17.25;100.00;97840.58;1727324;81;28061;-87
2022/05/25 06:46:13;;;;;;;10.63;9.53;;;;;;;17.21;100.00;97832.65;1717780;82;28120;-88
2022/05/25 06:48:41;;;;;;;12.45;9.93;;;;;;;17.24;100.00;97834.16;1717450;82;28072;-88
2022/05/25 06:51:12;;;;;;;11.68;9.93;;;;;;;17.25;100.00;97831.33;1718739;82;28079;-87
2022/05/25 06:53:38;;;;;;;11.05;8.95;;;;;;;17.28;100.00;97839.44;1715992;82;28078;-88
2022/05/25 06:56:05;;;;;;;9.95;8.95;;;;;;;17.36;100.00;97834.97;1722850;82;28095;-86
2022/05/25 06:58:32;;;;;;;10.85;8.13;;;;;;;17.44;100.00;97843.42;1724302;82;28104;-86
2022/05/25 07:00:59;;;;;;;10.25;8.80;;;;;;;17.49;100.00;97843.27;1723173;82;28066;-88
2022/05/25 07:03:25;;;;;;;5.42;4.65;;;;;;;17.56;100.00;97851.37;1732210;82;28143;-89
2022/05/25 07:05:52;;;;;;;4.87;4.35;;;;;;;17.53;100.00;97858.30;1722686;82;28089;-86
2022/05/25 07:08:20;;;;;;;7.47;3.80;;;;;;;17.49;100.00;97864.92;1728827;82;28070;-85
2022/05/25 07:10:47;;;;;;;6.40;4.28;;;;;;;17.44;100.00;97864.59;1722885;82;28103;-85
2022/05/25 07:13:15;;;;;;;4.90;4.35;;;;;;;17.44;100.00;97863.27;1722097;82;28053;-89
2022/05/25 07:15:42;;;;;;;6.25;4.05;;;;;;;17.47;100.00;97861.11;1716186;82;28057;-89
2022/05/25 07:18:10;;;;;;;4.33;3.92;;;;;;;17.50;100.00;97858.15;1724913;82;28195;-88
2022/05/25 07:20:36;;;;;;;4.30;3.87;;;;;;;17.54;100.00;97866.57;1720651;81;28132;-88
2022/05/25 07:23:03;;;;;;;3.98;3.60;;;;;;;17.50;100.00;97874.52;1715488;81;28003;-88
2022/05/25 07:25:30;;;;;;;3.33;3.02;;;;;;;17.45;100.00;97876.34;1719996;82;28066;-85
2022/05/25 07:27:56;;;;;;;6.10;3.10;;;;;;;17.42;100.00;97869.20;1720585;82;28166;-85
2022/05/25 07:30:22;;;;;;;3.95;2.80;;;;;;;17.38;100.00;97872.68;1721174;82;28184;-88
2022/05/25 07:32:52;;;;;;;3.12;2.83;;;;;;;17.29;100.00;97864.38;1719372;82;28065;-87
2022/05/25 07:35:19;;;;;;;3.35;3.05;;;;;;;17.31;100.00;97866.87;1718581;82;28101;-87
2022/05/25 07:37:50;;;;;;;4.47;3.10;;;;;;;17.37;100.00;97869.70;1719881;82;27997;-87
2022/05/25 07:40:21;;;;;;;4.45;2.92;;;;;;;17.35;100.00;97866.87;1730466;81;28139;-88
2022/05/25 07:42:59;;;;;;;2.95;2.65;;;;;;;17.30;100.00;97864.72;1726803;81;28075;-89
2022/05/25 07:45:27;;;;;;;2.22;2.02;;;;;;;17.29;100.00;97868.34;1724921;82;28078;-88
2022/05/25 07:47:53;;;;;;;3.33;1.90;;;;;;;17.33;100.00;97871.02;1728597;81;28099;-85
2022/05/25 07:50:23;;;;;;;1.75;1.65;;;;;;;17.35;100.00;97869.52;1731455;81;28049;-84
2022/05/25 07:52:54;;;;;;;3.55;1.90;;;;;;;17.36;100.00;97865.88;1731991;81;28092;-84
2022/05/25 07:55:20;;;;;;;1.70;1.50;;;;;;;17.38;100.00;97874.49;1737733;81;28084;-84
2022/05/25 07:57:53;;;;;;;2.42;1.67;;;;;;;17.37;100.00;97876.31;1731744;81;28088;-84
2022/05/25 08:00:24;;;;;;;1.80;1.70;;;;;;;17.45;100.00;97871.53;1731330;81;28091;-88
2022/05/25 08:05:47;;;;;;;3.60;1.92;;;;;;;17.45;100.00;97880.80;1721280;82;28012;-85
2022/05/25 08:08:18;;;;;;;2.62;2.42;;;;;;;17.46;100.00;97876.64;1715435;81;28113;-88
2022/05/25 08:10:55;;;;;;;2.00;1.90;;;;;;;17.42;100.00;97887.72;1724082;82;28108;-84
2022/05/25 08:13:21;;;;;;;2.35;2.12;;;;;;;17.35;100.00;97888.03;1734732;81;28067;-84
2022/05/25 08:15:48;;;;;;;1.98;1.87;;;;;;;17.34;100.00;97884.59;1735412;81;28060;-85
2022/05/25 08:18:16;;;;;;;2.45;2.17;;;;;;;17.31;100.00;97892.83;1740584;81;28104;-84
2022/05/25 08:20:46;;;;;;;2.52;2.25;;;;;;;17.35;100.00;97898.61;1722307;82;28137;-87
2022/05/25 08:23:15;;;;;;;3.83;2.25;;;;;;;17.32;100.00;97900.27;1727222;82;28101;-85
2022/05/25 08:25:44;;;;;;;4.62;2.10;;;;;;;17.32;100.00;97895.81;1728718;81;28085;-88
2022/05/25 08:28:11;;;;;;;2.50;2.30;;;;;;;17.33;100.00;97901.93;1729400;81;28088;-88
2022/05/25 08:30:44;;;;;;;2.50;2.30;;;;;;;17.31;100.00;97913.16;1710521;81;28415;-88
2022/05/25 08:33:13;;;;;;;2.52;2.10;;;;;;;17.28;100.00;97905.56;1728504;81;28100;-88
2022/05/25 08:35:40;;;;;;;3.47;2.58;;;;;;;17.25;100.00;97912.48;1735957;81;28178;-88
2022/05/25 08:38:06;;;;;;;3.17;2.85;;;;;;;17.18;100.00;97918.10;1740397;81;28113;-85
2022/05/25 08:40:34;;;;;;;3.72;3.05;;;;;;;17.12;100.00;97916.44;1725296;81;28084;-84
2022/05/25 08:43:25;;;;;;;2.70;2.50;;;;;;;17.04;100.00;97916.39;1720393;82;28053;-84
2022/05/25 08:46:01;;;;;;;3.10;2.90;;;;;;;17.00;100.00;97919.52;1717506;82;28095;-89
2022/05/25 08:48:28;;;;;;;3.17;2.92;;;;;;;16.94;100.00;97928.92;1650821;85;28154;-86
2022/05/25 08:51:05;;;;;;;3.92;3.55;;;;;;;16.92;100.00;97930.88;1673743;84;28168;-89
2022/05/25 08:53:35;;;;;;;3.30;3.00;;;;;;;16.92;100.00;97941.45;1726156;82;28080;-87
2022/05/25 08:56:29;;;;;;;6.60;3.42;;;;;;;16.89;100.00;97947.56;1721480;82;28058;-90
2022/05/25 08:59:12;;;;;;;3.33;2.47;;;;;;;16.78;100.00;97956.59;1720000;82;28070;-87
2022/05/25 09:01:56;;;;;;;2.62;2.08;;;;;;;16.65;100.00;97967.59;1712293;82;28080;-87
2022/05/25 09:04:38;;;;;;;2.02;1.65;;;;;;;16.44;100.00;97959.66;1721490;82;28021;-87
2022/05/25 09:07:12;;;;;;;;;;;;;;;16.21;100.00;97965.93;1729536;82;28072;-88
2022/05/25 09:09:47;;;;;;;3.90;1.50;;;;;;;16.10;100.00;97969.64;1716808;82;25179;-87
2022/05/25 09:12:45;;;;;;;1.75;1.57;;;;;;;15.91;100.00;97967.19;1720411;82;28065;-87
2022/05/25 09:15:15;;;;;;;1.67;1.57;;;;;;;15.77;100.00;97976.45;1723322;82;28160;-87
2022/05/25 09:18:11;;;;;;;2.80;1.70;;;;;;;15.72;100.00;97976.08;1719146;82;28177;-87
2022/05/25 09:20:47;;;;;;;2.58;1.32;;;;;;;15.65;100.00;97985.59;1717052;82;28097;-87
2022/05/25 09:23:20;;;;;;;4.67;1.25;;;;;;;15.54;100.00;97988.45;1728198;82;28085;-89
2022/05/25 09:25:48;;;;;;;5.80;1.37;;;;;;;15.42;100.00;97993.06;1726084;82;28098;-89
2022/05/25 09:28:20;;;;;;;2.05;1.50;;;;;;;15.35;100.00;98001.21;1717518;82;28102;-88
2022/05/25 09:30:56;;;;;;;3.58;1.47;;;;;;;15.35;100.00;98013.56;1714786;82;28140;-88
2022/05/25 09:33:52;;;;;;;2.90;1.37;;;;;;;15.23;100.00;98026.59;1729150;81;27999;-87
2022/05/25 09:36:44;;;;;;;3.75;1.10;;;;;;;15.10;100.00;98030.07;1724043;82;28083;-87
2022/05/25 09:39:25;;;;;;;3.20;1.50;;;;;;;14.97;100.00;98021.16;1669895;83;28027;-88
2022/05/25 09:41:57;;;;;;;4.12;1.57;;;;;;;14.82;100.00;98019.98;1675376;85;28093;-89
2022/05/25 09:44:26;;;;;;;2.80;1.10;;;;;;;14.77;100.00;98023.05;1682724;85;28088;-89
2022/05/25 09:46:55;;;;;;;1.47;1.17;;;;;;;14.71;100.00;98020.14;1644776;86;28211;-89
2022/05/25 09:49:28;;;;;;;1.45;0.90;;;;;;;14.62;100.00;98024.45;1636510;86;28101;-86
2022/05/25 09:52:04;;;;;;;2.15;1.55;;;;;;;14.50;100.00;98036.14;1646901;85;28114;-87
2022/05/25 09:54:36;;;;;;;2.33;1.37;;;;;;;14.45;100.00;98047.58;1675686;85;28095;-87
2022/05/25 09:57:06;;;;;;;1.52;1.27;;;;;;;14.46;100.00;98048.73;1672518;85;28166;-88
2022/05/25 09:59:43;;;;;;;3.47;1.42;;;;;;;14.45;100.00;98052.36;1640429;86;28095;-87
2022/05/25 10:02:22;;;;;;;1.55;1.10;;;;;;;14.44;100.00;98051.18;1643932;86;28074;-87
2022/05/25 10:04:51;;;;;;;2.65;1.40;;;;;;;14.46;100.00;98044.78;1656956;85;28104;-86
2022/05/25 10:07:27;;;;;;;3.50;1.60;;;;;;;14.41;100.00;98045.69;1673561;85;28097;-89
2022/05/25 10:09:55;;;;;;;2.33;2.00;;;;;;;14.38;100.00;98049.10;1675969;85;28004;-89
2022/05/25 10:12:34;;;;;;;3.62;1.90;;;;;;;14.43;100.00;98054.78;1677894;85;28071;-88
2022/05/25 10:15:10;;;;;;;2.00;1.30;;;;;;;14.49;100.00;98058.17;1667903;85;28189;-86
2022/05/25 10:17:43;;;;;;;2.20;1.80;;;;;;;14.54;100.00;98061.20;1673900;85;28098;-86
2022/05/25 10:20:25;;;;;;;2.58;1.60;;;;;;;14.49;100.00;98064.27;1679143;85;28075;-86
2022/05/25 10:23:01;;;;;;;2.92;1.40;;;;;;;14.57;100.00;98070.96;1640564;87;28062;-87
2022/05/25 10:25:42;;;;;;;2.65;1.52;;;;;;;14.66;100.00;98075.89;1642871;87;28078;-87
2022/05/25 10:28:21;;;;;;;1.87;1.32;;;;;;;14.67;100.00;98080.19;1636530;87;28058;-87
2022/05/25 10:36:59;;;;;;;1.27;1.17;;;;;;;14.95;100.00;98092.92;1682851;85;28101;-88
2022/05/25 10:39:36;;;;;;;2.05;1.50;;;;;;;15.07;100.00;98089.16;1678340;85;28102;-88
2022/05/25 10:42:14;;;;;;;3.20;1.50;;;;;;;15.12;100.00;98089.55;1671036;85;28002;-88
2022/05/25 10:44:53;;;;;;;1.72;1.57;;;;;;;15.23;100.00;98092.50;1682909;84;28086;-87
2022/05/25 10:47:46;;;;;;;3.50;1.77;;;;;;;15.33;100.00;98097.24;1675715;85;28071;-88
2022/05/25 10:50:46;;;;;;;2.50;1.32;;;;;;;15.40;100.00;98104.92;1678484;85;28012;-88
2022/05/25 10:53:35;;;;;;;3.08;1.35;;;;;;;15.48;100.00;98112.47;1648178;85;28132;-89
2022/05/25 10:56:14;;;;;;;1.65;1.40;;;;;;;15.49;100.00;98119.37;1620159;87;28108;-89
2022/05/25 10:58:44;;;;;;;4.25;1.37;;;;;;;15.42;100.00;98124.91;1610699;88;28112;-89
2022/05/25 11:01:20;;;;;;;1.60;1.27;;;;;;;15.44;100.00;98128.22;1600805;87;28190;-89
2022/05/25 11:04:05;;;;;;;1.77;1.50;;;;;;;15.29;100.00;98127.03;1610789;88;28068;-89
2022/05/25 11:06:58;;;;;;;3.27;1.72;;;;;;;15.21;100.00;98127.42;1642220;87;28301;-89
2022/05/25 11:09:49;;;;;;;2.75;1.52;;;;;;;15.36;100.00;98124.66;1631330;87;28194;-86
2022/05/25 11:12:25;;;;;;;2.58;1.70;;;;;;;15.47;100.00;98116.56;1632799;87;28127;-86
2022/05/25 11:15:15;;;;;;;2.33;1.50;;;;;;;15.40;100.00;98122.90;1676566;84;28110;-86
2022/05/25 11:18:05;;;;;;;2.92;1.75;;;;;;;15.45;100.00;98125.93;1645053;86;28045;-88
2022/05/25 11:20:42;;;;;;;3.75;1.90;;;;;;;15.58;100.00;98132.72;1641232;86;28022;-88
2022/05/25 11:23:38;;;;;;;4.10;2.33;;;;;;;15.50;100.00;98128.95;1641403;85;28089;-85
2022/05/25 11:26:20;;;;;;;3.15;2.15;;;;;;;15.40;100.00;98126.02;1575929;89;28070;-85
2022/05/25 11:29:03;;;;;;;3.55;2.37;;;;;;;15.36;100.00;98124.17;1671891;85;28111;-85
2022/05/25 11:31:44;;;;;;;2.65;2.42;;;;;;;15.40;100.00;98122.90;1653104;85;28071;-87
2022/05/25 11:34:23;;;;;;;7.47;2.52;;;;;;;15.44;100.00;98130.85;1677003;85;28082;-87
2022/05/25 11:37:27;;;;;;;2.70;2.35;;;;;;;15.48;100.00;98139.33;1675977;85;28067;-87
2022/05/25 11:40:13;;;;;;;4.25;2.62;;;;;;;15.45;100.00;98142.23;1632084;86;28095;-88
2022/05/25 11:42:58;;;;;;;4.80;2.37;;;;;;;15.44;100.00;98150.63;1629440;86;28199;-87
2022/05/25 11:45:48;;;;;;;2.33;2.10;;;;;;;15.37;100.00;98146.94;1614382;87;28082;-88
2022/05/25 11:48:21;;;;;;;3.90;1.90;;;;;;;15.14;100.00;98149.56;1628913;86;28151;-88
2022/05/25 11:51:00;;;;;;;2.95;2.00;;;;;;;15.05;100.00;98143.31;1629416;86;28103;-89
2022/05/25 11:53:45;;;;;;;3.00;1.85;;;;;;;15.07;100.00;98140.55;1628172;85;28106;-88
2022/05/25 11:56:18;;;;;;;1.65;1.55;;;;;;;15.10;100.00;98136.33;1626580;86;28095;-88
2022/05/25 11:59:21;;;;;;;3.52;1.70;;;;;;;15.07;100.00;98145.34;1630168;86;28087;-89
2022/05/25 12:01:52;;;;;;;2.80;1.60;;;;;;;14.98;100.00;98137.46;1630424;86;28125;-85
2022/05/25 12:04:57;;;;;;;1.67;1.33;;;;;;;14.98;100.00;98145.37;1629341;86;28180;-87
2022/05/25 12:07:35;;;;;;;2.85;2.40;;;;;;;14.92;100.00;98151.20;1623080;87;28167;-86
2022/05/25 12:10:29;;;;;;;10.18;5.90;;;;;;;14.87;100.00;98149.47;1628646;86;28114;-86
2022/05/25 12:13:21;;;;;;;6.17;3.77;;;;;;;14.74;100.00;98148.44;1627582;86;28202;-89
2022/05/25 12:16:19;;;;;;;3.30;1.98;;;;;;;14.67;100.00;98151.30;1627857;86;28090;-89
2022/05/25 12:18:59;;;;;;;2.08;1.77;;;;;;;14.74;100.00;98151.07;1627809;86;28110;-88